世纪气象云

 找回密码
 注册

QQ登录

只需一步,快速开始

楼主: yz0330
收起左侧

[西太台风] 2015年初夏热带云簇帖(立夏小满芒种)

[复制链接]
发表于 2015-5-10 14:26 | 显示全部楼层
1507号台风昨天20点编号。
发表于 2015-5-10 14:28 | 显示全部楼层
1507号台风东侧的输入云团有可能发展为1508号台风,不过还需要观察。1506号台风正靠近吕宋岛东北部,有可能在吕宋东北部登陆,由于吕宋岛地形效应比较明显,登陆后西分量可能会比较大,对台湾构成威胁。
 楼主| 发表于 2015-5-11 12:02 | 显示全部楼层
红霞巅峰到过60m/s|140kt|105kt,擦过吕宋岛东北端,目前已经处于转向阶段,强度也已经减弱。台湾省发了海上台风警报。
   
今年全球已经4个CAT.5了,这样子还挺异常的。最强的暂时还是PAM
 楼主| 发表于 2015-5-12 09:16 | 显示全部楼层
JMA预测红霞横扫东京,目前仍维持TY级
 楼主| 发表于 2015-5-13 09:17 | 显示全部楼层
红霞没撑到登陆并横扫就变性为EXTC,而白海豚风眼已出,目前加强为TY
 楼主| 发表于 2015-5-14 09:18 | 显示全部楼层
白海豚没啥变数,只看能加强到多强。注意EC算出孟加拉湾TC的信号,随着01B的登陆和07W的转向,夏季风爆发可期,看看华南降水会否出现一个巨大增幅
发表于 2015-5-20 17:24 | 显示全部楼层
机场实况报告

硫磺岛(RJAW)实况
RJAW 190600Z 16042G74KT 1700 R07/0550V1100U +SHRA BR SCT003 BKN005 OVC008 SCT008CB 25/24 Q0988 RMK 3ST003 6ST005 8CU008 3CB008 A2919 R0650 CB OHD MOV N P/FR
RJAW 190615Z 16047G77KT 1400 R07/0550N +SHRA BR BKN002 BKN005 OVC008CB 25/24 Q0987 RMK 5ST002 7ST005 8CB008 A2916 CB OHD MOV N RI++ P/FR
RJAW 190627Z 16050G78KT 0900 R07/0350V0500D +SHRA FG VV002 25/24 Q0986 RMK A2914 R0400 RI++ P/FR
RJAW 190700Z 16052G83KT 0300 R07/0300V0350N +SHRA FG VV001 25/24 Q0984 RMK A2908 R0300 RI++ P/FR
RJAW 190737Z 16054G99KT 0300 R07/0400V0550N +SHRA FG VV001 25/24 Q0982 RMK A2900 R0450 RI++ P/FR
RJAW 190800Z 17051G85KT 0300 R07/0400V0550N +SHRA FG VV001 25/24 Q0981 RMK A2899 R0400 RI++ P/FR
RJAW 190900Z 19048G73KT 0300 R07/0450V1100U +SHRA FG VV001 25/24 Q0981 RMK A2899 R0650 RI++
RJAW 191200Z 23042G67KT 1500 R07/1000V1600D SHRA BR BKN002 BKN005 OVC010CB 25/24 Q0985 RMK 5ST002 7ST005 8CB010 A2911 R1200 CB OHD MOV NE

持续 54kt,阵风 99kt,气压 981hpa

父岛(RJAO)实况
RJAO 191400Z 12033G62KT 5000 -SHRA BR SCT005 BKN010 25/24 Q0995 RMK 4ST005 7CU010 A2940 P/FR
RJAO 191500Z 12038G62KT 3000 -SHRA BR BKN005 BKN010 25/24 Q0992 RMK 5ST005 7CU010 A2930 P/FR
RJAO 191800Z 12019G29KT 4000 -SHRA BR FEW003 BKN005 BKN010 24/24 Q0977 RMK 2ST003 5ST005 7CU010 A2886 P/FR
RJAO 192100Z 34015G33KT 3000 -SHRA BR SCT003 BKN005 BKN010 24/24 Q0983 RMK 3ST003 6ST005 7CU010 A2905
RJAO 192200Z 01019G32KT 320V060 3000 -SHRA BR SCT003 BKN005 BKN010 25/24 Q0990 RMK 3ST003 6ST005 7CU010 A2924 P/RR 19D 26.8 23.5 27.5

持续 38kt,阵风 62kt,气压 977hpa
发表于 2015-6-12 12:56 | 显示全部楼层
关岛以南有热带低压区生成,由于13日开始副高开始北跳,系统可能会缓慢发展,有发展为1508号台风可能。
 楼主| 发表于 2015-6-15 08:32 | 显示全部楼层
南亚高压目前仍然没能跳上高原,雨带仍会摆动,短期内江淮无法稳定入梅
   
同时华南沿海被副高控制导致异常炎热少雨的状态在短期内无法改观
   
大致十天后,随着副高北抬让出低纬度的空间,以及热带系统开始活跃,有可能远洋有台风生成
 楼主| 发表于 2015-6-15 08:33 | 显示全部楼层
另外南海中期也存在出现季风槽的可能,或有季风低压生成
您需要登录后才可以回帖 登录 | 注册

本版积分规则

Archiver|手机版|世纪气象云 | | | 关于我们

GMT+8, 2019-9-24 04:05 , Processed in 0.029044 second(s), 16 queries .

Powered by Discuz! X3.4

© 2001-2017 Comsenz Inc.

快速回复 返回顶部 返回列表